Aérodrome :
LOGIN :

S'inscrire | Disclaimer

   EN    FR    IT 

 










Légende :    VFR   VFR Marginal   IFR   IFR Intensif   IFR Très Intensif
Visi : 
Plafond : 
>= 8 km
>= 3000ft
5 à 8 km
1000 à 3000 ft
1500m à 5 km
500 à 1000 ft
800 à 1500m
200 à 500 ft
< 800m
< 200 ft
Symboles :   Orages  Brouillard  Fortes neiges  Fortes précipitations  Vent > 20 kt
SIGMETs :   Divers  Orages  Givrage  Turbulence  Onde Orograph.  Cendres Volcan.






- Altitude de l'aérodrome : 39 ft


ETNH - Hohn AB

DERNIER METAR :
  • 151920Z VRB01KT 9999 MIFG SCT110 BKN180 OVC240 12/12 Q1006 BLU BLU BECMG WHT

METARs EXPIRÉS :
  • 151820Z 32004KT 9999 MIFG SCT140 BKN260 13/12 Q1006 BLU+BLU+ BECMG WHT
  • 151720Z 30002KT 9999 BKN140 SCT350 14/12 Q1006 BLU BLU

TAF COR TAF ETNH
Valide du 15 à 17h jusqu'au 16 à 05h UTC


151621Z 1517/1605 27008KT 9999 NSW SCT020 BKN070
BECMG 1520/1522 28005KT 7000 -RA SCT010 BKN030
TEMPO 1521/1605 30005KT 4000 RA BKN010
PROB30 1521/1602 VRB20G30KT 2000 TSRA BKN005 BKN010CB BY ETGL



MET'MAP, la Météo Aéronautique d'un coup d'oeil ! - Copyright ORBIFLY Décembre 2007 - Disclaimer

ORBIFLY MET'MAP TEAM :

Programmation & Développement : Alexandra Zaïnal
Conception & Développement : Baudouin d'Aumeries
Co-Programmation & Développement : Marc-Olivier Méhu
Soutien technique & logistique : Manuel Goepfert

Contact : metmap@orbifly.com




SOURCES & CREDITS :

   NOAA